Time;durP1;ratioP1;P1;durP2;ratioP2;P2;SDS_P1;SDS_P2;PMS_P1;PMS_P2;Temp;Humidity;BMP_temperature;BMP_pressure;BME280_temperature;BME280_humidity;BME280_pressure;Samples;Min_cycle;Max_cycle;Signal;HPM_P1;HPM_P2
2023/04/16 00:00:41;;;;;;;0.00;0.00;;;;;;;6.36;100.00;99537.66;6183137;23;20420;-95
2023/04/16 00:03:07;;;;;;;0.08;0.08;;;;;;;6.07;100.00;99502.38;6132827;23;20019;-94
2023/04/16 00:05:32;;;;;;;0.00;0.00;;;;;;;6.36;100.00;99541.22;6133303;23;20008;-93
2023/04/16 00:07:58;;;;;;;0.93;0.85;;;;;;;6.28;100.00;99526.00;6109205;23;20351;-95
2023/04/16 00:10:24;;;;;;;0.20;0.20;;;;;;;6.26;100.00;99533.16;6134160;23;20013;-94
2023/04/16 00:12:49;;;;;;;0.00;0.00;;;;;;;6.19;100.00;99508.50;6132988;23;20013;-95
2023/04/16 00:15:15;;;;;;;0.00;0.00;;;;;;;6.19;100.00;99505.72;6133113;23;20017;-94
2023/04/16 00:17:43;;;;;;;0.10;0.10;;;;;;;6.13;100.00;99497.16;6108468;23;20490;-94
2023/04/16 00:20:10;;;;;;;0.00;0.00;;;;;;;6.27;100.00;99529.94;6134049;23;20013;-95
2023/04/16 00:22:35;;;;;;;0.00;0.00;;;;;;;6.31;100.00;99530.66;6108755;23;20431;-96
2023/04/16 00:25:01;;;;;;;0.00;0.00;;;;;;;6.17;100.00;99510.88;6132374;23;20346;-94
2023/04/16 00:27:27;;;;;;;0.00;0.00;;;;;;;6.25;100.00;99534.34;6132899;23;20032;-95
2023/04/16 00:29:52;;;;;;;0.00;0.00;;;;;;;6.17;100.00;99519.13;6132722;23;20013;-94
2023/04/16 00:32:18;;;;;;;0.00;0.00;;;;;;;6.35;100.00;99550.66;6107823;23;20021;-96
2023/04/16 00:34:46;;;;;;;2.63;1.27;;;;;;;6.18;100.00;99524.22;6133078;23;20064;-94
2023/04/16 00:37:11;;;;;;;0.65;0.57;;;;;;;6.17;100.00;99528.19;6132738;23;20017;-94
2023/04/16 00:39:37;;;;;;;0.30;0.30;;;;;;;6.50;100.00;99571.28;6108452;23;20013;-95
2023/04/16 00:42:03;;;;;;;0.03;0.03;;;;;;;6.50;100.00;99565.78;6157032;23;20044;-94
2023/04/16 00:44:29;;;;;;;0.05;0.05;;;;;;;6.57;100.00;99576.66;6133217;23;20009;-94
2023/04/16 00:46:55;;;;;;;0.10;0.10;;;;;;;6.44;100.00;99556.41;6132534;23;20024;-94
2023/04/16 00:49:21;;;;;;;0.00;0.00;;;;;;;6.33;100.00;99544.81;6132625;23;20027;-94
2023/04/16 00:51:47;;;;;;;0.10;0.10;;;;;;;6.39;100.00;99548.63;6132678;23;20009;-96
2023/04/16 00:54:13;;;;;;;0.00;0.00;;;;;;;6.31;100.00;99541.69;6108003;23;20068;-96
2023/04/16 00:56:38;;;;;;;0.00;0.00;;;;;;;6.21;100.00;99533.63;6133090;23;20013;-94
2023/04/16 00:59:04;;;;;;;0.55;0.50;;;;;;;6.32;100.00;99554.25;6156803;23;20462;-94
2023/04/16 01:04:28;;;;;;;0.20;0.20;;;;;;;6.35;100.00;99556.16;6181854;23;20340;-93
2023/04/16 01:06:54;;;;;;;0.00;0.00;;;;;;;6.37;100.00;99564.81;6131182;23;20051;-92
2023/04/16 01:09:19;;;;;;;0.05;0.05;;;;;;;6.34;100.00;99562.91;6106621;23;20338;-93
2023/04/16 01:11:45;;;;;;;0.00;0.00;;;;;;;6.52;100.00;99590.13;6155002;23;20017;-91
2023/04/16 01:14:11;;;;;;;0.20;0.20;;;;;;;6.25;100.00;99546.13;6131811;23;20304;-92
2023/04/16 01:16:37;;;;;;;0.38;0.38;;;;;;;6.38;100.00;99568.34;6157550;23;20020;-93
2023/04/16 01:19:02;;;;;;;0.00;0.00;;;;;;;6.36;100.00;99560.50;6132048;23;20047;-92
2023/04/16 01:21:28;;;;;;;0.00;0.00;;;;;;;6.34;100.00;99560.16;6131503;23;20470;-93
2023/04/16 01:23:53;;;;;;;0.28;0.28;;;;;;;6.33;100.00;99555.84;6107709;23;20057;-92
2023/04/16 01:26:19;;;;;;;0.10;0.10;;;;;;;6.35;100.00;99553.41;6155991;23;20019;-92
2023/04/16 01:28:45;;;;;;;0.40;0.30;;;;;;;6.22;100.00;99530.44;6155437;23;20076;-92
2023/04/16 01:31:10;;;;;;;0.00;0.00;;;;;;;6.29;100.00;99537.81;6131280;23;20088;-91
2023/04/16 01:33:52;;;;;;;0.55;0.55;;;;;;;6.36;100.00;99554.97;6133295;23;20072;-92
2023/04/16 01:36:18;;;;;;;0.13;0.13;;;;;;;6.26;100.00;99547.69;6156204;23;20009;-92
2023/04/16 01:38:44;;;;;;;0.85;0.80;;;;;;;6.40;100.00;99563.97;6155431;23;20013;-92
2023/04/16 01:41:09;;;;;;;0.43;0.35;;;;;;;6.39;100.00;99561.66;6155422;23;20021;-93
2023/04/16 01:43:35;;;;;;;0.43;0.17;;;;;;;6.41;100.00;99557.25;6107340;23;20351;-93
2023/04/16 01:46:13;;;;;;;0.00;0.00;;;;;;;6.65;100.00;99587.53;6156954;23;20020;-95
2023/04/16 01:48:42;;;;;;;0.73;0.47;;;;;;;6.49;100.00;99569.72;6111148;23;20017;-93
2023/04/16 01:51:08;;;;;;;0.00;0.00;;;;;;;6.42;100.00;99558.03;6134940;23;20016;-93
2023/04/16 01:53:35;;;;;;;0.00;0.00;;;;;;;6.36;100.00;99552.22;6135184;23;20425;-94
2023/04/16 01:56:00;;;;;;;0.22;0.22;;;;;;;6.59;100.00;99587.28;6110900;23;20017;-94
2023/04/16 01:58:31;;;;;;;0.00;0.00;;;;;;;6.61;100.00;99575.81;6110898;23;20015;-94
2023/04/16 02:00:57;;;;;;;0.60;0.57;;;;;;;6.47;100.00;99572.09;6110025;23;20009;-94
2023/04/16 02:03:23;;;;;;;0.10;0.10;;;;;;;6.39;100.00;99562.41;6129648;23;20324;-94
2023/04/16 02:05:50;;;;;;;0.20;0.20;;;;;;;6.56;100.00;99588.09;6076841;23;20018;-95
2023/04/16 02:08:16;;;;;;;0.25;0.22;;;;;;;6.32;100.00;99547.97;6052569;23;20025;-95
2023/04/16 02:10:45;;;;;;;0.00;0.00;;;;;;;6.53;100.00;99578.69;6052433;23;20037;-93
2023/04/16 02:13:10;;;;;;;0.00;0.00;;;;;;;6.33;100.00;99555.84;6052528;23;20022;-93
2023/04/16 02:15:36;;;;;;;0.30;0.10;;;;;;;6.39;100.00;99570.66;6076027;23;20321;-93
2023/04/16 02:18:02;;;;;;;0.00;0.00;;;;;;;6.15;100.00;99525.03;6075448;23;20009;-93
2023/04/16 02:20:29;;;;;;;36.85;1.25;;;;;;;6.30;100.00;99548.41;6051742;23;20010;-93
2023/04/16 02:23:01;;;;;;;0.00;0.00;;;;;;;6.39;100.00;99556.13;6076859;23;20018;-94
2023/04/16 02:25:27;;;;;;;0.65;0.30;;;;;;;6.31;100.00;99547.19;6075474;23;20466;-93
2023/04/16 02:27:55;;;;;;;0.35;0.35;;;;;;;6.17;100.00;99524.63;6099318;23;20025;-92
2023/04/16 02:30:30;;;;;;;0.63;0.63;;;;;;;6.40;100.00;99563.97;6079136;23;20006;-93
2023/04/16 02:32:55;;;;;;;0.00;0.00;;;;;;;6.52;100.00;99568.09;6075204;23;20024;-93
2023/04/16 02:35:21;;;;;;;0.52;0.47;;;;;;;6.56;100.00;99572.34;6075621;23;20452;-93
2023/04/16 02:37:48;;;;;;;0.05;0.05;;;;;;;6.37;100.00;99547.50;6075313;23;20034;-93
2023/04/16 02:40:13;;;;;;;0.10;0.10;;;;;;;6.51;100.00;99556.28;6075434;23;20029;-93
2023/04/16 02:42:39;;;;;;;0.08;0.08;;;;;;;6.45;100.00;99557.97;6074883;23;20021;-93
2023/04/16 02:45:06;;;;;;;0.00;0.00;;;;;;;6.47;100.00;99566.59;6051856;23;20025;-93
2023/04/16 02:47:33;;;;;;;0.30;0.30;;;;;;;6.46;100.00;99570.56;6051848;23;20041;-93
2023/04/16 02:49:58;;;;;;;0.17;0.10;;;;;;;6.42;100.00;99567.09;6075221;23;20061;-94
2023/04/16 02:52:24;;;;;;;0.30;0.30;;;;;;;6.32;100.00;99546.00;6075322;23;20085;-94
2023/04/16 02:54:50;;;;;;;0.40;0.40;;;;;;;6.43;100.00;99554.09;6075440;23;20017;-93
2023/04/16 02:57:15;;;;;;;0.52;0.52;;;;;;;6.47;100.00;99557.56;6075348;23;20669;-94
2023/04/16 02:59:41;;;;;;;0.75;0.73;;;;;;;6.37;100.00;99551.03;6075182;23;20018;-94
2023/04/16 03:02:07;;;;;;;0.35;0.35;;;;;;;6.54;100.00;99577.50;6051594;23;20101;-93
2023/04/16 03:04:32;;;;;;;0.00;0.00;;;;;;;6.27;100.00;99540.22;6100042;23;20097;-93
2023/04/16 03:06:58;;;;;;;0.25;0.20;;;;;;;6.22;100.00;99535.97;6079806;23;20021;-92
2023/04/16 03:09:24;;;;;;;0.43;0.32;;;;;;;6.28;100.00;99559.06;6079534;23;20025;-94
2023/04/16 03:11:49;;;;;;;0.35;0.35;;;;;;;6.26;100.00;99558.72;6103531;23;20016;-94
2023/04/16 03:14:15;;;;;;;0.82;0.80;;;;;;;6.46;100.00;99602.84;6102634;23;20518;-92
2023/04/16 03:16:40;;;;;;;0.57;0.57;;;;;;;6.16;100.00;99551.38;6126450;23;20055;-93
2023/04/16 03:19:06;;;;;;;0.77;0.57;;;;;;;6.24;100.00;99561.09;6102328;23;20096;-93
2023/04/16 03:21:32;;;;;;;0.45;0.45;;;;;;;6.42;100.00;99585.59;6125515;23;20017;-93
2023/04/16 03:23:57;;;;;;;0.90;0.90;;;;;;;6.37;100.00;99586.84;6125965;23;20005;-92
2023/04/16 03:26:23;;;;;;;1.85;1.05;;;;;;;6.44;100.00;99597.75;6125977;23;20024;-93
2023/04/16 03:28:49;;;;;;;0.52;0.52;;;;;;;6.26;100.00;99580.75;6101092;23;20017;-92
2023/04/16 03:31:15;;;;;;;0.00;0.00;;;;;;;6.28;100.00;99578.34;6078480;23;20056;-92
2023/04/16 03:33:41;;;;;;;0.17;0.17;;;;;;;6.32;100.00;99595.59;6125338;23;20432;-92
2023/04/16 03:36:07;;;;;;;0.10;0.10;;;;;;;6.30;100.00;99594.47;6101163;23;20002;-92
2023/04/16 03:38:32;;;;;;;0.57;0.57;;;;;;;6.06;100.00;99564.16;6101287;23;20069;-93
2023/04/16 03:41:01;;;;;;;0.55;0.52;;;;;;;6.30;100.00;99589.72;6077241;23;20016;-91
2023/04/16 03:43:28;;;;;;;0.45;0.25;;;;;;;6.31;100.00;99596.78;6126609;23;20021;-92
2023/04/16 03:45:53;;;;;;;0.45;0.45;;;;;;;6.38;100.00;99615.97;6099089;23;20638;-92
2023/04/16 03:48:22;;;;;;;0.57;0.57;;;;;;;6.24;100.00;99591.38;6078538;23;20093;-92
2023/04/16 03:50:47;;;;;;;0.63;0.63;;;;;;;6.50;100.00;99636.63;6076607;23;20077;-92
2023/04/16 03:53:15;;;;;;;0.65;0.65;;;;;;;6.29;100.00;99604.69;6078398;23;20052;-93
2023/04/16 03:55:41;;;;;;;0.10;0.10;;;;;;;6.48;100.00;99639.78;6101104;23;20016;-92
2023/04/16 03:58:08;;;;;;;0.10;0.10;;;;;;;6.44;100.00;99633.56;6078212;23;20096;-94
2023/04/16 04:00:34;;;;;;;0.25;0.25;;;;;;;6.38;100.00;99632.50;6101171;23;20020;-92
2023/04/16 04:03:06;;;;;;;0.52;0.40;;;;;;;6.16;100.00;99600.97;6126980;23;20002;-92
2023/04/16 04:05:39;;;;;;;0.00;0.00;;;;;;;6.05;100.00;99584.63;6100610;23;20074;-94
2023/04/16 04:08:07;;;;;;;0.08;0.08;;;;;;;6.36;100.00;99643.13;6101806;23;20029;-92
2023/04/16 04:10:34;;;;;;;0.10;0.10;;;;;;;6.30;100.00;99639.31;6125922;23;20335;-92
2023/04/16 04:13:02;;;;;;;0.20;0.20;;;;;;;6.20;100.00;99626.47;6125485;23;20036;-92
2023/04/16 04:15:28;;;;;;;0.20;0.20;;;;;;;6.16;100.00;99623.00;6101560;23;20016;-94
2023/04/16 04:17:54;;;;;;;0.38;0.38;;;;;;;6.10;100.00;99616.41;6100531;23;20017;-93
2023/04/16 04:20:22;;;;;;;0.22;0.22;;;;;;;6.13;100.00;99623.84;6101476;23;20006;-93
2023/04/16 04:22:47;;;;;;;0.10;0.10;;;;;;;6.07;100.00;99620.75;6100560;23;20121;-92
2023/04/16 04:25:13;;;;;;;0.20;0.20;;;;;;;6.20;100.00;99643.00;6101677;23;20013;-93
2023/04/16 04:27:39;;;;;;;0.43;0.25;;;;;;;6.09;100.00;99612.09;6102063;23;20040;-92
2023/04/16 04:30:06;;;;;;;0.73;0.52;;;;;;;6.15;100.00;99628.94;6125210;23;20045;-93
2023/04/16 04:32:33;;;;;;;0.00;0.00;;;;;;;6.14;100.00;99641.91;6101343;23;20101;-92
2023/04/16 04:35:01;;;;;;;0.10;0.10;;;;;;;6.24;100.00;99665.75;6100773;23;20846;-93
2023/04/16 04:37:27;;;;;;;0.00;0.00;;;;;;;6.09;100.00;99639.63;6100837;23;20072;-92
2023/04/16 04:39:52;;;;;;;0.00;0.00;;;;;;;6.11;100.00;99651.00;6125607;23;20324;-92
2023/04/16 04:42:19;;;;;;;0.00;0.00;;;;;;;6.12;100.00;99660.81;6101031;23;20494;-92
2023/04/16 04:44:45;;;;;;;0.00;0.00;;;;;;;6.14;100.00;99658.44;6100395;23;20019;-92
2023/04/16 04:47:11;;;;;;;0.00;0.00;;;;;;;6.21;100.00;99669.34;6100456;23;20093;-91
2023/04/16 04:49:36;;;;;;;0.10;0.10;;;;;;;6.24;100.00;99671.25;6100502;23;20521;-91
2023/04/16 04:52:02;;;;;;;0.35;0.35;;;;;;;6.09;100.00;99654.19;6124987;23;20024;-92
2023/04/16 04:54:30;;;;;;;0.00;0.00;;;;;;;6.19;100.00;99662.72;6101235;23;20092;-91
2023/04/16 04:56:56;;;;;;;0.47;0.47;;;;;;;6.20;100.00;99667.78;6100986;23;20073;-91
2023/04/16 04:59:22;;;;;;;0.20;0.10;;;;;;;6.40;100.00;99709.97;6102512;23;20347;-91
2023/04/16 05:01:48;;;;;;;0.00;0.00;;;;;;;6.42;100.00;99704.84;6076751;23;20043;-92
2023/04/16 05:04:14;;;;;;;0.00;0.00;;;;;;;6.16;100.00;99672.56;6100945;23;20459;-91
2023/04/16 05:06:40;;;;;;;0.00;0.00;;;;;;;6.08;100.00;99654.59;6101410;23;20013;-92
2023/04/16 05:09:10;;;;;;;0.10;0.10;;;;;;;6.24;100.00;99684.25;6100586;23;20009;-93
2023/04/16 05:11:37;;;;;;;0.20;0.20;;;;;;;6.25;100.00;99686.59;6101595;23;20435;-91
2023/04/16 05:14:02;;;;;;;0.20;0.20;;;;;;;6.22;100.00;99694.91;6149345;23;20036;-92
2023/04/16 05:16:28;;;;;;;0.55;0.45;;;;;;;5.95;100.00;99661.84;6100552;23;20511;-91
2023/04/16 05:18:54;;;;;;;1.70;1.48;;;;;;;6.04;100.00;99673.13;6102183;23;20021;-91
2023/04/16 05:21:21;;;;;;;0.38;0.20;;;;;;;6.24;100.00;99696.03;6103513;23;20020;-92
2023/04/16 05:23:46;;;;;;;0.30;0.30;;;;;;;6.17;100.00;99700.88;6127563;23;20160;-92
2023/04/16 05:26:12;;;;;;;0.38;0.20;;;;;;;6.25;100.00;99711.38;6103313;23;20384;-92
2023/04/16 05:28:37;;;;;;;0.00;0.00;;;;;;;6.18;100.00;99702.44;6127635;23;20075;-91
2023/04/16 05:31:03;;;;;;;0.00;0.00;;;;;;;6.07;100.00;99691.56;6103125;23;20033;-91
2023/04/16 05:33:34;;;;;;;0.00;0.00;;;;;;;6.22;100.00;99726.00;6104353;23;20036;-92
2023/04/16 05:36:00;;;;;;;0.08;0.08;;;;;;;6.27;100.00;99720.00;6126481;23;20471;-92
2023/04/16 05:38:25;;;;;;;0.20;0.20;;;;;;;6.03;100.00;99690.84;6103618;23;20045;-94
2023/04/16 05:40:51;;;;;;;0.10;0.10;;;;;;;6.26;100.00;99729.47;6102973;23;20049;-92
2023/04/16 05:43:17;;;;;;;0.00;0.00;;;;;;;6.22;100.00;99725.22;6078665;23;20006;-94
2023/04/16 05:45:42;;;;;;;0.10;0.10;;;;;;;6.28;100.00;99746.34;6078575;23;20313;-93
2023/04/16 05:48:11;;;;;;;0.00;0.00;;;;;;;6.31;100.00;99758.53;6151333;23;20056;-93
2023/04/16 05:50:36;;;;;;;0.15;0.13;;;;;;;6.03;100.00;99713.66;6127305;23;20020;-92
2023/04/16 05:53:06;;;;;;;0.43;0.35;;;;;;;6.01;100.00;99712.50;6127362;23;20017;-93
2023/04/16 05:55:32;;;;;;;0.00;0.00;;;;;;;6.27;100.00;99753.06;6126309;23;20010;-92
2023/04/16 05:57:58;;;;;;;0.20;0.20;;;;;;;6.13;100.00;99722.97;6101220;23;20032;-92
2023/04/16 06:00:24;;;;;;;0.32;0.28;;;;;;;6.02;100.00;99708.56;6102658;23;20021;-95
2023/04/16 06:02:49;;;;;;;1.08;0.98;;;;;;;6.06;100.00;99712.06;6101761;23;20428;-93
2023/04/16 06:05:15;;;;;;;0.35;0.32;;;;;;;5.89;100.00;99680.03;6071872;23;20122;-92
2023/04/16 06:07:41;;;;;;;0.10;0.10;;;;;;;5.99;100.00;99703.88;6123324;23;20017;-92
2023/04/16 06:10:07;;;;;;;1.30;0.90;;;;;;;6.07;100.00;99702.59;6075768;23;20018;-93
2023/04/16 06:12:33;;;;;;;0.17;0.17;;;;;;;6.06;100.00;99712.84;6098547;23;20089;-93
2023/04/16 06:14:59;;;;;;;0.00;0.00;;;;;;;6.22;100.00;99734.25;6078003;23;20037;-92
2023/04/16 06:17:25;;;;;;;0.43;0.20;;;;;;;6.30;100.00;99741.22;6125867;23;20013;-92
2023/04/16 06:19:51;;;;;;;0.05;0.05;;;;;;;6.21;100.00;99729.16;6125881;23;20096;-92
2023/04/16 06:22:17;;;;;;;0.05;0.05;;;;;;;6.00;100.00;99692.47;6101958;23;20116;-93
2023/04/16 06:24:42;;;;;;;0.00;0.00;;;;;;;6.01;100.00;99698.75;6152290;23;20009;-92
2023/04/16 06:27:08;;;;;;;0.20;0.20;;;;;;;6.09;100.00;99711.22;6126783;23;20028;-92
2023/04/16 06:29:33;;;;;;;0.75;0.75;;;;;;;6.31;100.00;99753.78;6126072;23;20018;-94
2023/04/16 06:31:59;;;;;;;0.10;0.10;;;;;;;6.21;100.00;99729.94;6100928;23;20084;-92
2023/04/16 06:34:27;;;;;;;0.10;0.10;;;;;;;6.31;100.00;99744.75;6077584;23;20017;-93
2023/04/16 06:36:53;;;;;;;0.00;0.00;;;;;;;6.08;100.00;99726.19;6102297;23;20067;-92
2023/04/16 06:39:20;;;;;;;0.10;0.10;;;;;;;6.21;100.00;99737.41;6126370;23;20355;-93
2023/04/16 06:41:49;;;;;;;0.17;0.17;;;;;;;6.00;100.00;99710.94;6077696;23;20079;-93
2023/04/16 06:44:16;;;;;;;0.17;0.17;;;;;;;6.12;100.00;99726.91;6101993;23;20041;-92
2023/04/16 06:46:42;;;;;;;0.00;0.00;;;;;;;6.05;100.00;99718.75;6101552;23;20048;-93
2023/04/16 06:49:07;;;;;;;0.10;0.10;;;;;;;6.12;100.00;99737.13;6078519;23;20014;-93
2023/04/16 06:51:33;;;;;;;0.10;0.10;;;;;;;6.12;100.00;99748.94;6101345;23;20455;-94
2023/04/16 06:53:59;;;;;;;0.20;0.20;;;;;;;6.00;100.00;99724.72;6078196;23;20048;-94
2023/04/16 06:56:25;;;;;;;0.65;0.52;;;;;;;6.04;100.00;99730.94;6103243;23;20100;-94
2023/04/16 06:58:50;;;;;;;0.10;0.10;;;;;;;6.21;100.00;99763.00;6102653;23;20020;-94
2023/04/16 07:01:16;;;;;;;0.00;0.00;;;;;;;6.36;100.00;99758.84;6127043;23;20435;-93
2023/04/16 07:03:42;;;;;;;0.17;0.17;;;;;;;6.23;100.00;99749.56;6102597;23;20447;-95
2023/04/16 07:06:08;;;;;;;0.00;0.00;;;;;;;6.37;100.00;99770.63;6102617;23;20072;-94
2023/04/16 07:08:34;;;;;;;0.20;0.15;;;;;;;6.21;100.00;99754.72;6102819;23;20093;-93
2023/04/16 07:10:59;;;;;;;0.03;0.03;;;;;;;6.19;100.00;99735.06;6125659;23;20496;-92
2023/04/16 07:13:25;;;;;;;0.90;0.57;;;;;;;6.00;100.00;99708.97;6100849;23;20439;-94
2023/04/16 07:15:51;;;;;;;0.47;0.47;;;;;;;6.20;100.00;99731.13;6100914;23;20052;-94
2023/04/16 07:18:16;;;;;;;0.08;0.08;;;;;;;6.22;100.00;99745.28;6101606;23;20511;-93
2023/04/16 07:20:42;;;;;;;0.38;0.38;;;;;;;6.28;100.00;99762.88;6078369;23;20064;-93
2023/04/16 07:23:07;;;;;;;0.10;0.10;;;;;;;6.17;100.00;99737.47;6127132;23;20460;-94
2023/04/16 07:25:33;;;;;;;0.10;0.10;;;;;;;6.12;100.00;99731.63;6129116;23;20013;-95
2023/04/16 07:27:59;;;;;;;0.17;0.17;;;;;;;6.19;100.00;99740.56;6086572;23;20101;-95
2023/04/16 07:30:31;;;;;;;0.10;0.10;;;;;;;6.21;100.00;99749.22;6087557;23;20009;-94
2023/04/16 07:32:57;;;;;;;0.30;0.30;;;;;;;6.13;100.00;99736.75;6112892;23;20009;-94
2023/04/16 07:35:22;;;;;;;1.20;0.63;;;;;;;6.51;100.00;99781.47;6110242;23;20160;-93
2023/04/16 07:37:48;;;;;;;0.17;0.17;;;;;;;6.37;100.00;99762.38;6126452;23;20038;-93
2023/04/16 07:40:14;;;;;;;0.00;0.00;;;;;;;6.39;100.00;99757.25;6126675;23;20045;-92
2023/04/16 07:42:40;;;;;;;0.00;0.00;;;;;;;6.45;100.00;99767.38;6125866;23;20077;-91
2023/04/16 07:45:06;;;;;;;0.25;0.25;;;;;;;6.66;100.00;99798.56;6125987;23;20469;-92
2023/04/16 07:47:31;;;;;;;0.30;0.30;;;;;;;6.39;100.00;99762.75;6125636;23;20002;-94
2023/04/16 07:49:57;;;;;;;0.00;0.00;;;;;;;6.55;100.00;99785.72;6124904;23;20017;-93
2023/04/16 07:52:22;;;;;;;0.00;0.00;;;;;;;6.68;100.00;99801.69;6101909;23;20032;-94
2023/04/16 07:54:48;;;;;;;0.10;0.10;;;;;;;6.37;100.00;99743.88;6125192;23;20012;-92
2023/04/16 07:57:15;;;;;;;0.15;0.15;;;;;;;6.61;100.00;99774.22;6101323;23;20005;-93
2023/04/16 07:59:40;;;;;;;0.20;0.20;;;;;;;6.42;100.00;99750.91;6077126;23;20035;-93
2023/04/16 08:02:07;;;;;;;0.00;0.00;;;;;;;6.84;100.00;99810.09;6150184;23;20040;-94
2023/04/16 08:04:33;;;;;;;0.30;0.30;;;;;;;6.65;100.00;99783.22;6101236;23;20041;-93
2023/04/16 08:06:58;;;;;;;0.73;0.57;;;;;;;6.73;100.00;99790.97;6101352;23;20076;-94
2023/04/16 08:09:27;;;;;;;0.50;0.50;;;;;;;6.49;100.00;99768.09;6125439;23;20359;-93
2023/04/16 08:11:52;;;;;;;0.10;0.10;;;;;;;6.43;100.00;99758.72;6076930;23;20009;-94
2023/04/16 08:14:19;;;;;;;0.43;0.43;;;;;;;6.44;100.00;99757.53;6100556;23;20052;-92
2023/04/16 08:16:44;;;;;;;0.35;0.35;;;;;;;6.51;100.00;99765.69;6124983;23;20021;-94
2023/04/16 08:19:10;;;;;;;0.20;0.20;;;;;;;6.45;100.00;99761.84;6149559;23;20018;-93
2023/04/16 08:21:35;;;;;;;0.10;0.10;;;;;;;6.60;100.00;99772.66;6101518;23;20040;-93
2023/04/16 08:24:04;;;;;;;0.22;0.22;;;;;;;6.72;100.00;99781.13;6075660;23;20018;-93
2023/04/16 08:26:30;;;;;;;0.50;0.50;;;;;;;6.82;100.00;99802.25;6100790;23;20045;-93
2023/04/16 08:28:55;;;;;;;0.63;0.22;;;;;;;6.62;100.00;99773.03;6124556;23;20023;-93
2023/04/16 08:31:21;;;;;;;0.95;0.95;;;;;;;6.71;100.00;99790.63;6075684;23;20011;-93
2023/04/16 08:33:47;;;;;;;1.05;1.05;;;;;;;6.77;100.00;99794.44;6125539;23;20014;-93
2023/04/16 08:36:12;;;;;;;0.75;0.75;;;;;;;6.83;100.00;99797.53;6124468;23;20014;-93
2023/04/16 08:38:38;;;;;;;0.50;0.50;;;;;;;6.67;100.00;99773.38;6125222;23;20009;-93
2023/04/16 08:41:06;;;;;;;0.45;0.43;;;;;;;7.03;100.00;99835.03;6125246;23;20009;-94
2023/04/16 08:43:36;;;;;;;0.43;0.43;;;;;;;6.87;100.00;99806.53;6101008;23;20100;-94
2023/04/16 08:46:04;;;;;;;0.10;0.10;;;;;;;6.71;100.00;99800.88;6124080;23;20041;-94
2023/04/16 08:48:32;;;;;;;0.57;0.57;;;;;;;6.84;100.00;99829.41;6124881;23;20045;-93
2023/04/16 08:50:59;;;;;;;1.35;0.40;;;;;;;6.72;100.00;99813.44;6100362;23;20021;-93
2023/04/16 08:53:36;;;;;;;1.77;1.48;;;;;;;6.56;100.00;99790.03;6076301;23;20025;-95
2023/04/16 08:56:08;;;;;;;0.55;0.45;;;;;;;6.78;100.00;99825.56;6102850;23;20070;-94
2023/04/16 08:58:34;;;;;;;1.05;1.05;;;;;;;6.81;100.00;99833.00;6102366;23;20025;-93
2023/04/16 09:01:02;;;;;;;0.45;0.45;;;;;;;6.63;100.00;99807.69;6077725;23;20482;-93
2023/04/16 09:03:31;;;;;;;0.63;0.63;;;;;;;6.52;100.00;99805.06;6102892;23;20084;-94
2023/04/16 09:05:58;;;;;;;1.90;1.77;;;;;;;6.66;100.00;99815.09;6102249;23;20079;-93
2023/04/16 09:08:24;;;;;;;0.47;0.43;;;;;;;6.83;100.00;99825.88;6127193;23;20017;-95
2023/04/16 09:10:50;;;;;;;0.47;0.20;;;;;;;6.86;100.00;99818.75;6126716;23;20336;-93
2023/04/16 09:13:19;;;;;;;0.65;0.32;;;;;;;6.83;100.00;99789.25;6102847;23;20020;-93
2023/04/16 09:15:45;;;;;;;0.30;0.30;;;;;;;6.97;100.00;99813.84;6151616;23;20005;-92
2023/04/16 09:18:11;;;;;;;0.20;0.20;;;;;;;7.08;100.00;99806.16;6126645;23;20010;-92
2023/04/16 09:20:38;;;;;;;1.58;1.27;;;;;;;7.08;100.00;99800.66;6102016;23;20013;-94
2023/04/16 09:23:03;;;;;;;1.20;0.88;;;;;;;7.46;100.00;99857.16;6101698;23;20019;-93
2023/04/16 09:25:37;;;;;;;0.20;0.20;;;;;;;7.24;100.00;99817.31;6102268;23;20022;-94
2023/04/16 09:28:03;;;;;;;;;;;;;;;7.40;100.00;99863.59;6126937;23;20009;-93
2023/04/16 09:30:28;;;;;;;0.65;0.65;;;;;;;7.00;100.00;99819.28;6124384;23;19940;-94
2023/04/16 09:33:21;;;;;;;0.28;0.28;;;;;;;7.35;100.00;99867.63;6100472;23;20021;-93
2023/04/16 09:35:51;;;;;;;0.30;0.30;;;;;;;7.00;100.00;99813.00;6077825;23;20084;-91
2023/04/16 09:38:20;;;;;;;0.30;0.30;;;;;;;7.00;100.00;99819.28;6127114;23;20036;-93
2023/04/16 09:40:48;;;;;;;0.38;0.38;;;;;;;7.16;100.00;99828.94;6102090;23;20013;-93
2023/04/16 09:43:17;;;;;;;1.17;1.15;;;;;;;7.38;100.00;99844.69;6127061;23;20018;-92
2023/04/16 09:45:51;;;;;;;1.42;0.63;;;;;;;7.27;100.00;99811.00;6125902;23;20014;-93
2023/04/16 09:48:29;;;;;;;;;;;;;;;7.69;100.00;99880.44;6102904;23;20362;-94
2023/04/16 09:50:55;;;;;;;0.15;0.15;;;;;;;7.41;100.00;99832.81;6126154;23;19964;-93
2023/04/16 09:53:27;;;;;;;0.13;0.13;;;;;;;7.48;100.00;99854.00;6102461;23;20385;-94
2023/04/16 09:56:04;;;;;;;0.65;0.65;;;;;;;7.33;100.00;99831.38;6126923;23;20508;-92
2023/04/16 09:58:30;;;;;;;0.10;0.10;;;;;;;7.75;100.00;99890.59;6126728;23;20543;-94
2023/04/16 10:01:05;;;;;;;0.35;0.35;;;;;;;7.35;100.00;99823.47;6077003;23;20056;-93
2023/04/16 10:03:32;;;;;;;0.20;0.20;;;;;;;7.62;100.00;99866.75;6101632;23;20144;-93
2023/04/16 10:06:13;;;;;;;0.77;0.77;;;;;;;7.61;100.00;99856.91;6103512;23;20092;-94
2023/04/16 10:08:46;;;;;;;0.20;0.20;;;;;;;7.80;100.00;99875.53;6102112;23;20376;-93
2023/04/16 10:11:11;;;;;;;0.22;0.22;;;;;;;7.81;100.00;99854.97;6102544;23;20089;-94
2023/04/16 10:13:37;;;;;;;0.80;0.68;;;;;;;7.82;100.00;99845.50;6101609;23;20068;-94
2023/04/16 10:16:03;;;;;;;0.30;0.30;;;;;;;7.83;100.00;99833.25;6102260;23;20098;-93
2023/04/16 10:18:29;;;;;;;0.17;0.17;;;;;;;7.93;100.00;99857.13;6127924;23;20018;-92
2023/04/16 10:20:55;;;;;;;0.52;0.45;;;;;;;7.99;100.00;99855.44;6078267;23;20465;-93
2023/04/16 10:23:21;;;;;;;0.10;0.10;;;;;;;7.67;100.00;99817.38;6102599;23;20017;-93
2023/04/16 10:25:48;;;;;;;0.47;0.47;;;;;;;7.94;100.00;99858.69;6101719;23;20041;-94
2023/04/16 10:28:15;;;;;;;0.77;0.68;;;;;;;7.98;100.00;99864.91;6102168;23;20491;-93
2023/04/16 10:30:47;;;;;;;1.77;0.75;;;;;;;7.97;100.00;99841.25;6077170;23;20069;-94
2023/04/16 10:33:13;;;;;;;0.40;0.32;;;;;;;8.21;100.00;99850.28;6126894;23;20021;-93
2023/04/16 10:35:39;;;;;;;0.10;0.10;;;;;;;7.92;100.00;99798.34;6101821;23;20089;-93
2023/04/16 10:38:24;;;;;;;0.50;0.50;;;;;;;8.31;100.00;99843.78;6126751;23;20017;-92
2023/04/16 10:40:58;;;;;;;0.43;0.43;;;;;;;8.29;100.00;99833.13;6125356;23;20108;-93
2023/04/16 10:43:24;;;;;;;0.40;0.40;;;;;;;8.33;100.00;99824.78;6101530;23;20028;-92
2023/04/16 10:45:50;;;;;;;1.77;1.25;;;;;;;8.51;100.00;99846.50;6124959;23;20005;-93
2023/04/16 10:48:17;;;;;;;0.65;0.45;;;;;;;8.65;100.00;99860.03;6077830;23;20351;-92
2023/04/16 10:50:54;;;;;;;0.30;0.30;;;;;;;8.50;100.00;99840.19;6126120;23;20503;-92
2023/04/16 10:53:25;;;;;;;0.55;0.55;;;;;;;8.47;100.00;99838.31;6101845;23;20018;-91
2023/04/16 10:56:25;;;;;;;0.17;0.17;;;;;;;8.41;100.00;99826.22;6076877;23;20045;-94
2023/04/16 10:58:53;;;;;;;0.38;0.38;;;;;;;8.38;100.00;99827.81;6123565;23;20024;-91
2023/04/16 11:01:31;;;;;;;0.13;0.10;;;;;;;8.50;100.00;99853.25;6098552;23;20467;-92
2023/04/16 11:04:20;;;;;;;0.47;0.47;;;;;;;8.15;100.00;99808.53;6102476;23;20109;-92
2023/04/16 11:07:18;;;;;;;0.20;0.20;;;;;;;8.23;100.00;99815.47;6150820;23;20101;-91
2023/04/16 11:09:52;;;;;;;0.30;0.30;;;;;;;8.33;100.00;99842.13;6100169;23;20025;-93
2023/04/16 11:12:22;;;;;;;0.20;0.20;;;;;;;8.26;100.00;99847.78;6125683;23;20325;-94
2023/04/16 11:14:52;;;;;;;0.08;0.08;;;;;;;8.13;100.00;99821.25;6150879;23;20471;-94
2023/04/16 11:17:19;;;;;;;0.55;0.55;;;;;;;8.18;100.00;99831.78;6126409;23;20045;-93
2023/04/16 11:19:45;;;;;;;0.30;0.30;;;;;;;8.05;100.00;99800.47;6125518;23;20090;-94
2023/04/16 11:22:14;;;;;;;0.05;0.05;;;;;;;8.46;100.00;99822.13;6101897;23;20017;-94
2023/04/16 11:24:40;;;;;;;0.13;0.13;;;;;;;8.58;100.00;99819.50;6101750;23;20452;-94
2023/04/16 11:27:06;;;;;;;1.85;0.40;;;;;;;8.45;100.00;99792.97;6101541;23;20033;-93
2023/04/16 11:29:32;;;;;;;0.22;0.22;;;;;;;8.48;100.00;99800.38;6101641;23;20348;-94
2023/04/16 11:32:08;;;;;;;0.10;0.10;;;;;;;8.44;100.00;99786.66;6101319;23;20124;-95
2023/04/16 11:34:34;;;;;;;0.10;0.10;;;;;;;8.45;100.00;99787.44;6077396;23;20028;-94
2023/04/16 11:37:00;;;;;;;0.00;0.00;;;;;;;8.62;100.00;99808.34;6077053;23;20356;-93